createdAt,value
2017-05-17T00:00:00.649Z,13.93
2017-05-17T00:00:05.077Z,14.01
2017-05-17T00:00:09.561Z,13.98
2017-05-17T00:00:13.758Z,13.96
2017-05-17T00:00:18.076Z,13.87
2017-05-17T00:00:22.389Z,13.98
2017-05-17T00:00:26.581Z,13.98
2017-05-17T00:00:31.013Z,13.99
2017-05-17T00:00:35.208Z,13.99
2017-05-17T00:00:39.546Z,14.04
2017-05-17T00:00:43.978Z,13.91
2017-05-17T00:00:48.287Z,13.93
2017-05-17T00:00:52.627Z,13.99
2017-05-17T00:00:57.076Z,14.04
2017-05-17T00:01:01.813Z,13.93
2017-05-17T00:01:06.300Z,13.94
2017-05-17T00:01:10.604Z,13.96
2017-05-17T00:01:15.035Z,13.93
2017-05-17T00:01:19.463Z,13.96
2017-05-17T00:01:23.888Z,13.96
2017-05-17T00:01:28.205Z,13.99
2017-05-17T00:01:32.637Z,13.96
2017-05-17T00:01:37.064Z,13.94
2017-05-17T00:01:41.493Z,13.99
2017-05-17T00:01:45.922Z,13.96
2017-05-17T00:01:50.237Z,13.94
2017-05-17T00:01:54.660Z,13.98
2017-05-17T00:01:59.087Z,13.93
2017-05-17T00:02:03.885Z,13.96
2017-05-17T00:02:08.092Z,13.99
2017-05-17T00:02:12.293Z,13.98
2017-05-17T00:02:16.612Z,13.93
2017-05-17T00:02:20.929Z,13.99
2017-05-17T00:02:25.287Z,14.01
2017-05-17T00:02:29.595Z,13.94
2017-05-17T00:02:34.021Z,14.04
2017-05-17T00:02:38.450Z,13.93
2017-05-17T00:02:42.878Z,13.94
2017-05-17T00:02:47.309Z,13.98
2017-05-17T00:02:51.744Z,13.93
2017-05-17T00:02:56.181Z,13.93
2017-05-17T00:03:00.612Z,14.01
2017-05-17T00:03:05.049Z,14.02
2017-05-17T00:03:09.486Z,14.04
2017-05-17T00:03:13.681Z,14.04
2017-05-17T00:03:17.993Z,13.98
2017-05-17T00:03:22.318Z,13.93
2017-05-17T00:03:26.751Z,13.98
2017-05-17T00:03:31.064Z,13.98
2017-05-17T00:03:35.496Z,14.02
2017-05-17T00:03:39.923Z,13.98
2017-05-17T00:03:44.354Z,13.96
2017-05-17T00:03:48.792Z,13.98
2017-05-17T00:03:53.224Z,13.93
2017-05-17T00:03:57.657Z,13.94
2017-05-17T00:04:02.142Z,14.01
2017-05-17T00:04:06.339Z,13.96
2017-05-17T00:04:10.787Z,13.94
2017-05-17T00:04:15.106Z,13.9
2017-05-17T00:04:19.541Z,13.96
2017-05-17T00:04:23.975Z,13.96
2017-05-17T00:04:28.402Z,13.98
2017-05-17T00:04:32.836Z,13.96
2017-05-17T00:04:37.140Z,13.99
2017-05-17T00:04:41.564Z,13.91
2017-05-17T00:04:46.009Z,13.99
2017-05-17T00:04:50.433Z,13.87
2017-05-17T00:04:54.871Z,13.93
2017-05-17T00:04:59.308Z,13.94
2017-05-17T00:05:03.919Z,13.93
2017-05-17T00:05:08.227Z,13.86
2017-05-17T00:05:12.654Z,13.91
2017-05-17T00:05:16.968Z,13.87
2017-05-17T00:05:21.289Z,13.88
2017-05-17T00:05:25.603Z,13.84
2017-05-17T00:05:30.029Z,13.91
2017-05-17T00:05:34.340Z,13.87
2017-05-17T00:05:38.768Z,13.87
2017-05-17T00:05:43.193Z,13.86
2017-05-17T00:05:47.681Z,13.83
2017-05-17T00:05:52.123Z,13.9
2017-05-17T00:05:56.432Z,13.9
2017-05-17T00:06:00.911Z,13.9
2017-05-17T00:06:05.340Z,13.87
2017-05-17T00:06:09.651Z,13.86
2017-05-17T00:06:13.964Z,13.83
2017-05-17T00:06:18.284Z,13.86
2017-05-17T00:06:22.708Z,13.84
2017-05-17T00:06:27.136Z,13.83
2017-05-17T00:06:31.569Z,13.86
2017-05-17T00:06:35.889Z,13.83
2017-05-17T00:06:40.313Z,13.8
2017-05-17T00:06:44.752Z,13.83
2017-05-17T00:06:48.890Z,13.86
2017-05-17T00:06:53.324Z,13.81
2017-05-17T00:06:57.766Z,13.84
2017-05-17T00:07:02.398Z,13.88
2017-05-17T00:07:06.830Z,13.86
2017-05-17T00:07:11.263Z,13.87
2017-05-17T00:07:15.743Z,13.86
2017-05-17T00:07:20.061Z,13.83
2017-05-17T00:07:24.546Z,13.8
2017-05-17T00:07:28.975Z,13.83
2017-05-17T00:07:33.410Z,13.84
2017-05-17T00:07:37.850Z,13.79
2017-05-17T00:07:42.285Z,13.88
2017-05-17T00:07:46.603Z,13.86
2017-05-17T00:07:51.036Z,13.86
2017-05-17T00:07:55.480Z,13.86
2017-05-17T00:07:59.912Z,13.76
2017-05-17T00:08:04.341Z,13.83
2017-05-17T00:08:08.649Z,13.72
2017-05-17T00:08:13.086Z,13.86
2017-05-17T00:08:17.513Z,13.75
2017-05-17T00:08:21.953Z,13.83
2017-05-17T00:08:26.274Z,13.81
2017-05-17T00:08:30.716Z,13.79
2017-05-17T00:08:35.152Z,13.72
2017-05-17T00:08:39.462Z,13.8
2017-05-17T00:08:43.769Z,13.73
2017-05-17T00:08:48.198Z,13.79
2017-05-17T00:08:52.624Z,13.73
2017-05-17T00:08:57.067Z,13.8
2017-05-17T00:09:01.492Z,13.73
2017-05-17T00:09:05.990Z,13.76
2017-05-17T00:09:10.183Z,13.69
2017-05-17T00:09:14.611Z,13.72
2017-05-17T00:09:19.052Z,13.79
2017-05-17T00:09:23.488Z,13.76
2017-05-17T00:09:27.920Z,13.72
2017-05-17T00:09:32.358Z,13.68
2017-05-17T00:09:36.789Z,13.72
2017-05-17T00:09:41.100Z,13.72
2017-05-17T00:09:45.413Z,13.73
2017-05-17T00:09:49.846Z,13.72
2017-05-17T00:09:54.157Z,13.71
2017-05-17T00:09:58.596Z,13.66
2017-05-17T00:10:03.024Z,13.73
2017-05-17T00:10:07.343Z,13.66
2017-05-17T00:10:11.647Z,13.71
2017-05-17T00:10:16.079Z,13.71
2017-05-17T00:10:20.269Z,13.73
2017-05-17T00:10:24.699Z,13.72
2017-05-17T00:10:29.007Z,13.68
2017-05-17T00:10:33.503Z,13.65
2017-05-17T00:10:37.808Z,13.73
2017-05-17T00:10:42.239Z,13.66
2017-05-17T00:10:46.670Z,13.63
2017-05-17T00:10:51.103Z,13.69
2017-05-17T00:10:55.530Z,13.62
2017-05-17T00:10:59.958Z,13.65
2017-05-17T00:11:04.400Z,13.65
2017-05-17T00:11:08.832Z,13.61
2017-05-17T00:11:13.270Z,13.62
2017-05-17T00:11:17.586Z,13.63
2017-05-17T00:11:22.020Z,13.61
2017-05-17T00:11:26.387Z,13.55
2017-05-17T00:11:30.817Z,13.59
2017-05-17T00:11:35.270Z,13.53
2017-05-17T00:11:39.639Z,13.59
2017-05-17T00:11:44.063Z,13.61
2017-05-17T00:11:48.491Z,13.66
2017-05-17T00:11:52.808Z,13.61
2017-05-17T00:11:57.293Z,13.54
2017-05-17T00:12:01.722Z,13.54
2017-05-17T00:12:06.133Z,13.57
2017-05-17T00:12:10.214Z,13.57
2017-05-17T00:12:14.411Z,13.55
2017-05-17T00:12:18.838Z,13.59
2017-05-17T00:12:23.275Z,13.54
2017-05-17T00:12:27.467Z,13.61
2017-05-17T00:12:31.906Z,13.54
2017-05-17T00:12:36.337Z,13.5
2017-05-17T00:12:40.651Z,13.61
2017-05-17T00:12:45.091Z,13.54
2017-05-17T00:12:49.522Z,13.51
2017-05-17T00:12:53.950Z,13.54
2017-05-17T00:12:58.393Z,13.5
2017-05-17T00:13:02.595Z,13.54
2017-05-17T00:13:07.078Z,13.46
2017-05-17T00:13:11.401Z,13.47
2017-05-17T00:13:15.831Z,13.5
2017-05-17T00:13:20.263Z,13.44
2017-05-17T00:13:24.468Z,13.47
2017-05-17T00:13:28.965Z,13.48
2017-05-17T00:13:33.400Z,13.43
2017-05-17T00:13:37.835Z,13.47
2017-05-17T00:13:42.263Z,13.44
2017-05-17T00:13:46.700Z,13.46
2017-05-17T00:13:51.141Z,13.47
2017-05-17T00:13:55.585Z,13.48
2017-05-17T00:13:59.782Z,13.43
2017-05-17T00:14:04.216Z,13.39
2017-05-17T00:14:08.528Z,13.41
2017-05-17T00:14:12.961Z,13.36
2017-05-17T00:14:17.450Z,13.41
2017-05-17T00:14:21.769Z,13.38
2017-05-17T00:14:26.211Z,13.44
2017-05-17T00:14:30.642Z,13.36
2017-05-17T00:14:35.092Z,13.41
2017-05-17T00:14:39.406Z,13.36
2017-05-17T00:14:43.716Z,13.32
2017-05-17T00:14:48.171Z,13.35
2017-05-17T00:14:52.487Z,13.39
2017-05-17T00:14:56.954Z,13.36
2017-05-17T00:15:01.378Z,13.46
2017-05-17T00:15:06.010Z,13.41
2017-05-17T00:15:10.450Z,13.53
2017-05-17T00:15:14.888Z,13.35
2017-05-17T00:15:19.327Z,13.43
2017-05-17T00:15:23.763Z,13.35
2017-05-17T00:15:28.202Z,13.47
2017-05-17T00:15:32.512Z,13.38
2017-05-17T00:15:36.942Z,13.5
2017-05-17T00:15:41.384Z,13.31
2017-05-17T00:15:45.880Z,13.38
2017-05-17T00:15:50.312Z,13.43
2017-05-17T00:15:54.770Z,13.39
2017-05-17T00:15:59.082Z,13.41
2017-05-17T00:16:03.518Z,13.31
2017-05-17T00:16:07.956Z,13.28
2017-05-17T00:16:12.388Z,13.41
2017-05-17T00:16:16.579Z,13.43
2017-05-17T00:16:21.015Z,13.35
2017-05-17T00:16:25.325Z,13.38
2017-05-17T00:16:29.753Z,13.39
2017-05-17T00:16:34.187Z,13.27
2017-05-17T00:16:38.505Z,13.44
2017-05-17T00:16:42.944Z,13.35
2017-05-17T00:16:47.367Z,13.36
2017-05-17T00:16:51.684Z,13.38
2017-05-17T00:16:55.894Z,13.43
2017-05-17T00:17:00.096Z,13.35
2017-05-17T00:17:04.411Z,13.29
2017-05-17T00:17:08.610Z,13.38
2017-05-17T00:17:13.033Z,13.43
2017-05-17T00:17:17.342Z,13.31
2017-05-17T00:17:21.832Z,13.35
2017-05-17T00:17:26.264Z,13.38
2017-05-17T00:17:30.692Z,13.36
2017-05-17T00:17:35.016Z,13.32
2017-05-17T00:17:39.440Z,13.32
2017-05-17T00:17:43.890Z,13.36
2017-05-17T00:17:48.315Z,13.39
2017-05-17T00:17:52.748Z,13.36
2017-05-17T00:17:57.169Z,13.41
2017-05-17T00:18:01.615Z,13.38
2017-05-17T00:18:06.293Z,13.31
2017-05-17T00:18:10.728Z,13.35
2017-05-17T00:18:15.047Z,13.35
2017-05-17T00:18:19.479Z,13.36
2017-05-17T00:18:23.961Z,13.38
2017-05-17T00:18:28.276Z,13.41
2017-05-17T00:18:32.701Z,13.35
2017-05-17T00:18:37.021Z,13.32
2017-05-17T00:18:41.350Z,13.32
2017-05-17T00:18:45.658Z,13.31
2017-05-17T00:18:50.094Z,13.35
2017-05-17T00:18:54.520Z,13.38
2017-05-17T00:18:58.968Z,13.31
2017-05-17T00:19:03.395Z,13.29
2017-05-17T00:19:07.834Z,13.36
2017-05-17T00:19:12.271Z,13.36
2017-05-17T00:19:16.591Z,13.38
2017-05-17T00:19:21.085Z,13.31
2017-05-17T00:19:25.404Z,13.31
2017-05-17T00:19:29.843Z,13.35
2017-05-17T00:19:34.276Z,13.32
2017-05-17T00:19:38.712Z,13.27
2017-05-17T00:19:43.148Z,13.28
2017-05-17T00:19:47.574Z,13.38
2017-05-17T00:19:52.054Z,13.31
2017-05-17T00:19:56.381Z,13.38
2017-05-17T00:20:00.810Z,13.32
2017-05-17T00:20:05.442Z,13.28
2017-05-17T00:20:09.762Z,13.32
2017-05-17T00:20:14.192Z,13.25
2017-05-17T00:20:18.616Z,13.29
2017-05-17T00:20:23.043Z,13.31
2017-05-17T00:20:27.354Z,13.27
2017-05-17T00:20:31.782Z,13.27
2017-05-17T00:20:36.098Z,13.27
2017-05-17T00:20:40.524Z,13.29
2017-05-17T00:20:44.970Z,13.22
2017-05-17T00:20:49.400Z,13.28
2017-05-17T00:20:53.828Z,13.25
2017-05-17T00:20:58.137Z,13.24
2017-05-17T00:21:02.578Z,13.27
2017-05-17T00:21:07.011Z,13.22
2017-05-17T00:21:11.324Z,13.21
2017-05-17T00:21:15.752Z,13.25
2017-05-17T00:21:20.231Z,13.21
2017-05-17T00:21:24.540Z,13.25
2017-05-17T00:21:28.970Z,13.24
2017-05-17T00:21:33.467Z,13.27
2017-05-17T00:21:37.778Z,13.28
2017-05-17T00:21:42.092Z,13.22
2017-05-17T00:21:46.412Z,13.24
2017-05-17T00:21:50.844Z,13.24
2017-05-17T00:21:55.162Z,13.27
2017-05-17T00:21:59.636Z,13.24
2017-05-17T00:22:04.003Z,13.25
2017-05-17T00:22:08.433Z,13.25
2017-05-17T00:22:12.868Z,13.24
2017-05-17T00:22:17.173Z,13.27
2017-05-17T00:22:21.483Z,13.28
2017-05-17T00:22:25.796Z,13.25
2017-05-17T00:22:30.230Z,13.24
2017-05-17T00:22:34.661Z,13.24
2017-05-17T00:22:39.096Z,13.25
2017-05-17T00:22:43.530Z,13.24
2017-05-17T00:22:47.859Z,13.27
2017-05-17T00:22:52.286Z,13.19
2017-05-17T00:22:56.740Z,13.27
2017-05-17T00:23:01.165Z,13.27
2017-05-17T00:23:05.597Z,13.25
2017-05-17T00:23:09.799Z,13.24
2017-05-17T00:23:14.282Z,13.25
2017-05-17T00:23:18.592Z,13.27
2017-05-17T00:23:22.899Z,13.29
2017-05-17T00:23:27.336Z,13.25
2017-05-17T00:23:31.650Z,13.27
2017-05-17T00:23:35.845Z,13.28
2017-05-17T00:23:40.150Z,13.24
2017-05-17T00:23:44.363Z,13.29
2017-05-17T00:23:48.678Z,13.27
2017-05-17T00:23:53.100Z,13.24
2017-05-17T00:23:57.534Z,13.25
2017-05-17T00:24:01.966Z,13.25
2017-05-17T00:24:06.398Z,13.22
2017-05-17T00:24:10.587Z,13.22
2017-05-17T00:24:15.011Z,13.27
2017-05-17T00:24:19.450Z,13.27
2017-05-17T00:24:23.891Z,13.25
2017-05-17T00:24:28.201Z,13.27
2017-05-17T00:24:32.629Z,13.29
2017-05-17T00:24:37.060Z,13.28
2017-05-17T00:24:41.489Z,13.22
2017-05-17T00:24:45.926Z,13.24
2017-05-17T00:24:50.412Z,13.19
2017-05-17T00:24:54.855Z,13.24
2017-05-17T00:24:59.289Z,13.22
2017-05-17T00:25:03.982Z,13.24
2017-05-17T00:25:08.179Z,13.25
2017-05-17T00:25:12.491Z,13.21
2017-05-17T00:25:16.697Z,13.22
2017-05-17T00:25:20.896Z,13.19
2017-05-17T00:25:25.209Z,13.25
2017-05-17T00:25:29.639Z,13.22
2017-05-17T00:25:34.086Z,13.25
2017-05-17T00:25:38.511Z,13.22
2017-05-17T00:25:42.818Z,13.29
2017-05-17T00:25:47.255Z,13.24
2017-05-17T00:25:51.730Z,13.22
2017-05-17T00:25:56.164Z,13.22
2017-05-17T00:26:00.601Z,13.22
2017-05-17T00:26:05.061Z,13.22
2017-05-17T00:26:09.254Z,13.21
2017-05-17T00:26:13.624Z,13.25
2017-05-17T00:26:17.934Z,13.24
2017-05-17T00:26:22.369Z,13.19
2017-05-17T00:26:26.567Z,13.28
2017-05-17T00:26:30.885Z,13.27
2017-05-17T00:26:35.193Z,13.24
2017-05-17T00:26:39.622Z,13.21
2017-05-17T00:26:43.951Z,13.21
2017-05-17T00:26:48.390Z,13.19
2017-05-17T00:26:52.817Z,13.28
2017-05-17T00:26:57.256Z,13.27
2017-05-17T00:27:01.689Z,13.22
2017-05-17T00:27:06.372Z,13.17
2017-05-17T00:27:10.674Z,13.27
2017-05-17T00:27:15.111Z,13.27
2017-05-17T00:27:19.432Z,13.22
2017-05-17T00:27:23.857Z,13.19
2017-05-17T00:27:27.929Z,13.24
2017-05-17T00:27:32.378Z,13.22
2017-05-17T00:27:36.820Z,13.27
2017-05-17T00:27:41.257Z,13.22
2017-05-17T00:27:45.695Z,13.29
2017-05-17T00:27:50.055Z,13.19
2017-05-17T00:27:54.491Z,13.25
2017-05-17T00:27:58.923Z,13.24
2017-05-17T00:28:03.701Z,13.21
2017-05-17T00:28:08.018Z,13.31
2017-05-17T00:28:12.340Z,13.22
2017-05-17T00:28:16.670Z,13.14
2017-05-17T00:28:21.099Z,13.19
2017-05-17T00:28:25.534Z,13.19
2017-05-17T00:28:29.972Z,13.31
2017-05-17T00:28:34.411Z,13.28
2017-05-17T00:28:38.846Z,13.21
2017-05-17T00:28:43.223Z,13.25
2017-05-17T00:28:47.657Z,13.19
2017-05-17T00:28:52.139Z,13.19
2017-05-17T00:28:56.572Z,13.25
2017-05-17T00:29:01.000Z,13.19
2017-05-17T00:29:05.599Z,13.24
2017-05-17T00:29:09.910Z,13.22
2017-05-17T00:29:14.096Z,13.16
2017-05-17T00:29:18.527Z,13.19
2017-05-17T00:29:22.975Z,13.22
2017-05-17T00:29:27.399Z,13.16
2017-05-17T00:29:31.714Z,13.22
2017-05-17T00:29:36.034Z,13.25
2017-05-17T00:29:40.461Z,13.19
2017-05-17T00:29:44.774Z,13.21
2017-05-17T00:29:49.264Z,13.14
2017-05-17T00:29:53.589Z,13.21
2017-05-17T00:29:58.033Z,13.28
2017-05-17T00:30:02.515Z,13.21
2017-05-17T00:30:06.713Z,13.14
2017-05-17T00:30:11.027Z,13.19
2017-05-17T00:30:15.453Z,13.19
2017-05-17T00:30:19.756Z,13.19
2017-05-17T00:30:24.062Z,13.21
2017-05-17T00:30:28.370Z,13.21
2017-05-17T00:30:32.561Z,13.16
2017-05-17T00:30:36.990Z,13.28
2017-05-17T00:30:41.419Z,13.28
2017-05-17T00:30:45.736Z,13.21
2017-05-17T00:30:50.166Z,13.13
2017-05-17T00:30:54.595Z,13.16
2017-05-17T00:30:59.021Z,13.24
2017-05-17T00:31:03.458Z,13.28
2017-05-17T00:31:07.771Z,13.27
2017-05-17T00:31:12.213Z,13.19
2017-05-17T00:31:16.649Z,13.21
2017-05-17T00:31:21.080Z,13.24
2017-05-17T00:31:25.393Z,13.22
2017-05-17T00:31:29.819Z,13.28
2017-05-17T00:31:34.250Z,13.24
2017-05-17T00:31:38.676Z,13.27
2017-05-17T00:31:43.103Z,13.24
2017-05-17T00:31:47.542Z,13.24
2017-05-17T00:31:51.975Z,13.19
2017-05-17T00:31:56.290Z,13.25
2017-05-17T00:32:00.662Z,13.22
2017-05-17T00:32:04.902Z,13.21
2017-05-17T00:32:09.096Z,13.27
2017-05-17T00:32:13.535Z,13.29
2017-05-17T00:32:17.961Z,13.25
2017-05-17T00:32:22.386Z,13.28
2017-05-17T00:32:26.812Z,13.27
2017-05-17T00:32:31.255Z,13.16
2017-05-17T00:32:35.703Z,13.27
2017-05-17T00:32:40.138Z,13.22
2017-05-17T00:32:44.458Z,13.21
2017-05-17T00:32:48.775Z,13.21
2017-05-17T00:32:52.966Z,13.31
2017-05-17T00:32:57.287Z,13.19
2017-05-17T00:33:02.014Z,13.27
2017-05-17T00:33:06.448Z,13.25
2017-05-17T00:33:10.783Z,13.25
2017-05-17T00:33:15.208Z,13.24
2017-05-17T00:33:19.526Z,13.24
2017-05-17T00:33:23.951Z,13.24
2017-05-17T00:33:28.433Z,13.28
2017-05-17T00:33:32.869Z,13.21
2017-05-17T00:33:37.186Z,13.28
2017-05-17T00:33:41.628Z,13.21
2017-05-17T00:33:46.065Z,13.24
2017-05-17T00:33:50.496Z,13.25
2017-05-17T00:33:54.691Z,13.21
2017-05-17T00:33:59.022Z,13.27
2017-05-17T00:34:03.452Z,13.22
2017-05-17T00:34:07.913Z,13.31
2017-05-17T00:34:12.347Z,13.32
2017-05-17T00:34:16.549Z,13.22
2017-05-17T00:34:20.978Z,13.29
2017-05-17T00:34:25.415Z,13.38
2017-05-17T00:34:29.849Z,13.36
2017-05-17T00:34:34.278Z,13.35
2017-05-17T00:34:38.706Z,13.21
2017-05-17T00:34:43.133Z,13.28
2017-05-17T00:34:47.323Z,13.29
2017-05-17T00:34:51.813Z,13.31
2017-05-17T00:34:56.253Z,13.32
2017-05-17T00:35:00.681Z,13.28
2017-05-17T00:35:05.110Z,13.31
2017-05-17T00:35:09.418Z,13.32
2017-05-17T00:35:13.841Z,13.27
2017-05-17T00:35:18.160Z,13.35
2017-05-17T00:35:22.473Z,13.31
2017-05-17T00:35:26.780Z,13.38
2017-05-17T00:35:31.206Z,13.32
2017-05-17T00:35:35.631Z,13.32
2017-05-17T00:35:40.061Z,13.29
2017-05-17T00:35:44.373Z,13.32
2017-05-17T00:35:48.802Z,13.29
2017-05-17T00:35:53.229Z,13.32
2017-05-17T00:35:57.672Z,13.35
2017-05-17T00:36:02.042Z,13.36
2017-05-17T00:36:06.471Z,13.35
2017-05-17T00:36:10.547Z,13.36
2017-05-17T00:36:14.985Z,13.36
2017-05-17T00:36:19.418Z,13.38
2017-05-17T00:36:23.845Z,13.29
2017-05-17T00:36:28.158Z,13.44
2017-05-17T00:36:32.592Z,13.38
2017-05-17T00:36:36.923Z,13.35
2017-05-17T00:36:41.355Z,13.29
2017-05-17T00:36:45.785Z,13.39
2017-05-17T00:36:50.265Z,13.38
2017-05-17T00:36:54.692Z,13.43
2017-05-17T00:36:59.024Z,13.38
2017-05-17T00:37:03.639Z,13.38
2017-05-17T00:37:07.956Z,13.35
2017-05-17T00:37:12.388Z,13.38
2017-05-17T00:37:16.817Z,13.39
2017-05-17T00:37:21.131Z,13.41
2017-05-17T00:37:25.454Z,13.43
2017-05-17T00:37:29.887Z,13.39
2017-05-17T00:37:34.202Z,13.38
2017-05-17T00:37:38.626Z,13.36
2017-05-17T00:37:43.060Z,13.41
2017-05-17T00:37:47.492Z,13.38
2017-05-17T00:37:51.803Z,13.43
2017-05-17T00:37:56.252Z,13.41
2017-05-17T00:38:00.686Z,13.47
2017-05-17T00:38:05.002Z,13.39
2017-05-17T00:38:09.201Z,13.41
2017-05-17T00:38:13.650Z,13.44
2017-05-17T00:38:18.086Z,13.39
2017-05-17T00:38:22.399Z,13.36
2017-05-17T00:38:26.722Z,13.29
2017-05-17T00:38:30.917Z,13.41
2017-05-17T00:38:35.341Z,13.35
2017-05-17T00:38:39.771Z,13.25
2017-05-17T00:38:44.213Z,13.41
2017-05-17T00:38:48.644Z,13.31
2017-05-17T00:38:53.071Z,13.39
2017-05-17T00:38:57.562Z,13.28
2017-05-17T00:39:01.878Z,13.41
2017-05-17T00:39:06.318Z,13.32
2017-05-17T00:39:10.751Z,13.44
2017-05-17T00:39:15.194Z,13.44
2017-05-17T00:39:19.618Z,13.47
2017-05-17T00:39:24.053Z,13.35
2017-05-17T00:39:28.495Z,13.41
2017-05-17T00:39:32.923Z,13.38
2017-05-17T00:39:37.360Z,13.38
2017-05-17T00:39:41.798Z,13.44
2017-05-17T00:39:46.226Z,13.28
2017-05-17T00:39:50.680Z,13.39
2017-05-17T00:39:55.163Z,13.39
2017-05-17T00:39:59.589Z,13.46
2017-05-17T00:40:04.152Z,13.28
2017-05-17T00:40:08.490Z,13.48
2017-05-17T00:40:12.914Z,13.44
2017-05-17T00:40:17.221Z,13.44
2017-05-17T00:40:21.528Z,13.31
2017-05-17T00:40:25.835Z,13.31
2017-05-17T00:40:30.261Z,13.44
2017-05-17T00:40:34.564Z,13.36
2017-05-17T00:40:38.874Z,13.32
2017-05-17T00:40:43.236Z,13.43
2017-05-17T00:40:47.660Z,13.41
2017-05-17T00:40:52.089Z,13.36
2017-05-17T00:40:56.403Z,13.41
2017-05-17T00:41:00.830Z,13.31
2017-05-17T00:41:05.261Z,13.43
2017-05-17T00:41:09.580Z,13.39
2017-05-17T00:41:14.009Z,13.32
2017-05-17T00:41:18.437Z,13.43
2017-05-17T00:41:22.867Z,13.27
2017-05-17T00:41:27.297Z,13.46
2017-05-17T00:41:31.727Z,13.39
2017-05-17T00:41:36.160Z,13.35
2017-05-17T00:41:40.585Z,13.32
2017-05-17T00:41:45.017Z,13.41
2017-05-17T00:41:49.338Z,13.32
2017-05-17T00:41:53.664Z,13.44
2017-05-17T00:41:58.122Z,13.46
2017-05-17T00:42:02.656Z,13.39
2017-05-17T00:42:06.870Z,13.46
2017-05-17T00:42:11.063Z,13.38
2017-05-17T00:42:15.495Z,13.44
2017-05-17T00:42:19.931Z,13.32
2017-05-17T00:42:24.356Z,13.32
2017-05-17T00:42:28.787Z,13.43
2017-05-17T00:42:33.220Z,13.35
2017-05-17T00:42:37.651Z,13.36
2017-05-17T00:42:42.087Z,13.38
2017-05-17T00:42:46.574Z,13.43
2017-05-17T00:42:51.018Z,13.48
2017-05-17T00:42:55.451Z,13.39
2017-05-17T00:42:59.882Z,13.31
2017-05-17T00:43:04.446Z,13.47
2017-05-17T00:43:08.641Z,13.47
2017-05-17T00:43:13.068Z,13.39
2017-05-17T00:43:17.497Z,13.44
2017-05-17T00:43:21.813Z,13.31
2017-05-17T00:43:26.126Z,13.41
2017-05-17T00:43:30.552Z,13.39
2017-05-17T00:43:34.994Z,13.51
2017-05-17T00:43:39.426Z,13.41
2017-05-17T00:43:43.867Z,13.39
2017-05-17T00:43:48.301Z,13.39
2017-05-17T00:43:52.682Z,13.41
2017-05-17T00:43:56.828Z,13.28
2017-05-17T00:44:01.136Z,13.39
2017-05-17T00:44:05.612Z,13.38
2017-05-17T00:44:09.805Z,13.41
2017-05-17T00:44:14.002Z,13.47
2017-05-17T00:44:18.430Z,13.38
2017-05-17T00:44:22.740Z,13.38
2017-05-17T00:44:27.182Z,13.35
2017-05-17T00:44:31.672Z,13.39
2017-05-17T00:44:36.105Z,13.41
2017-05-17T00:44:40.545Z,13.44
2017-05-17T00:44:45.030Z,13.41
2017-05-17T00:44:49.386Z,13.38
2017-05-17T00:44:53.817Z,13.39
2017-05-17T00:44:58.257Z,13.44
2017-05-17T00:45:02.689Z,13.38
2017-05-17T00:45:07.007Z,13.35
2017-05-17T00:45:11.439Z,13.39
2017-05-17T00:45:15.746Z,13.48
2017-05-17T00:45:20.062Z,13.43
2017-05-17T00:45:24.381Z,13.36
2017-05-17T00:45:28.807Z,13.41
2017-05-17T00:45:33.236Z,13.44
2017-05-17T00:45:37.666Z,13.43
2017-05-17T00:45:41.983Z,13.35
2017-05-17T00:45:46.410Z,13.44
2017-05-17T00:45:50.840Z,13.39
2017-05-17T00:45:55.266Z,13.41
2017-05-17T00:45:59.576Z,13.41
2017-05-17T00:46:04.060Z,13.41
2017-05-17T00:46:08.260Z,13.41
2017-05-17T00:46:12.465Z,13.41
2017-05-17T00:46:16.901Z,13.43
2017-05-17T00:46:21.327Z,13.36
2017-05-17T00:46:25.761Z,13.39
2017-05-17T00:46:30.185Z,13.36
2017-05-17T00:46:34.498Z,13.39
2017-05-17T00:46:38.695Z,13.38
2017-05-17T00:46:43.122Z,13.38
2017-05-17T00:46:47.549Z,13.44
2017-05-17T00:46:51.985Z,13.41
2017-05-17T00:46:56.296Z,13.36
2017-05-17T00:47:00.725Z,13.36
2017-05-17T00:47:05.158Z,13.35
2017-05-17T00:47:09.647Z,13.39
2017-05-17T00:47:14.082Z,13.43
2017-05-17T00:47:18.511Z,13.44
2017-05-17T00:47:23.001Z,13.47
2017-05-17T00:47:27.434Z,13.35
2017-05-17T00:47:31.743Z,13.39
2017-05-17T00:47:36.051Z,13.43
2017-05-17T00:47:40.365Z,13.48
2017-05-17T00:47:44.741Z,13.39
2017-05-17T00:47:49.183Z,13.46
2017-05-17T00:47:53.616Z,13.43
2017-05-17T00:47:57.949Z,13.38
2017-05-17T00:48:02.384Z,13.44
2017-05-17T00:48:06.815Z,13.43
2017-05-17T00:48:11.241Z,13.41
2017-05-17T00:48:15.670Z,13.48
2017-05-17T00:48:19.874Z,13.47
2017-05-17T00:48:24.301Z,13.41
2017-05-17T00:48:28.747Z,13.41
2017-05-17T00:48:33.186Z,13.43
2017-05-17T00:48:37.664Z,13.38
2017-05-17T00:48:42.097Z,13.39
2017-05-17T00:48:46.531Z,13.41
2017-05-17T00:48:51.013Z,13.38
2017-05-17T00:48:55.443Z,13.28
2017-05-17T00:48:59.885Z,13.39
2017-05-17T00:49:04.197Z,13.44
2017-05-17T00:49:08.631Z,13.29
2017-05-17T00:49:12.947Z,13.43
2017-05-17T00:49:17.381Z,13.48
2017-05-17T00:49:21.815Z,13.38
2017-05-17T00:49:26.247Z,13.44
2017-05-17T00:49:30.684Z,13.38
2017-05-17T00:49:35.114Z,13.35
2017-05-17T00:49:39.546Z,13.41
2017-05-17T00:49:43.977Z,13.32
2017-05-17T00:49:48.410Z,13.28
2017-05-17T00:49:52.846Z,13.41
2017-05-17T00:49:57.287Z,13.31
2017-05-17T00:50:01.716Z,13.28
2017-05-17T00:50:06.150Z,13.36
2017-05-17T00:50:10.506Z,13.39
2017-05-17T00:50:14.945Z,13.44
2017-05-17T00:50:19.135Z,13.39
2017-05-17T00:50:23.564Z,13.35
2017-05-17T00:50:27.997Z,13.39
2017-05-17T00:50:32.482Z,13.38
2017-05-17T00:50:36.907Z,13.35
2017-05-17T00:50:41.351Z,13.39
2017-05-17T00:50:45.852Z,13.44
2017-05-17T00:50:50.285Z,13.43
2017-05-17T00:50:54.713Z,13.39
2017-05-17T00:50:59.143Z,13.41
2017-05-17T00:51:03.823Z,13.36
2017-05-17T00:51:08.022Z,13.38
2017-05-17T00:51:12.335Z,13.35
2017-05-17T00:51:16.764Z,13.39
2017-05-17T00:51:21.103Z,13.41
2017-05-17T00:51:25.418Z,13.39
2017-05-17T00:51:29.852Z,13.36
2017-05-17T00:51:34.288Z,13.39
2017-05-17T00:51:38.714Z,13.36
2017-05-17T00:51:43.151Z,13.35
2017-05-17T00:51:47.578Z,13.31
2017-05-17T00:51:52.002Z,13.36
2017-05-17T00:51:56.434Z,13.32
2017-05-17T00:52:00.867Z,13.32
2017-05-17T00:52:05.119Z,13.35
2017-05-17T00:52:09.565Z,13.31
2017-05-17T00:52:14.002Z,13.38
2017-05-17T00:52:18.431Z,13.38
2017-05-17T00:52:22.859Z,13.32
2017-05-17T00:52:27.288Z,13.35
2017-05-17T00:52:31.777Z,13.31
2017-05-17T00:52:36.202Z,13.36
2017-05-17T00:52:40.638Z,13.31
2017-05-17T00:52:45.066Z,13.25
2017-05-17T00:52:49.504Z,13.28
2017-05-17T00:52:53.949Z,13.35
2017-05-17T00:52:58.138Z,13.29
2017-05-17T00:53:02.620Z,13.29
2017-05-17T00:53:06.943Z,13.28
2017-05-17T00:53:11.426Z,13.31
2017-05-17T00:53:15.860Z,13.38
2017-05-17T00:53:20.218Z,13.32
2017-05-17T00:53:24.647Z,13.29
2017-05-17T00:53:29.076Z,13.32
2017-05-17T00:53:33.569Z,13.32
2017-05-17T00:53:37.991Z,13.29
2017-05-17T00:53:42.432Z,13.32
2017-05-17T00:53:46.874Z,13.25
2017-05-17T00:53:51.178Z,13.35
2017-05-17T00:53:55.513Z,13.27
2017-05-17T00:53:59.949Z,13.27
2017-05-17T00:54:04.380Z,13.28
2017-05-17T00:54:08.460Z,13.36
2017-05-17T00:54:12.895Z,13.36
2017-05-17T00:54:17.211Z,13.29
2017-05-17T00:54:21.428Z,13.31
2017-05-17T00:54:25.747Z,13.32
2017-05-17T00:54:30.177Z,13.38
2017-05-17T00:54:34.434Z,13.29
2017-05-17T00:54:38.855Z,13.27
2017-05-17T00:54:43.282Z,13.35
2017-05-17T00:54:47.473Z,13.28
2017-05-17T00:54:51.899Z,13.28
2017-05-17T00:54:56.355Z,13.28
2017-05-17T00:55:00.786Z,13.28
2017-05-17T00:55:05.108Z,13.35
2017-05-17T00:55:09.421Z,13.35
2017-05-17T00:55:13.848Z,13.32
2017-05-17T00:55:18.158Z,13.32
2017-05-17T00:55:22.476Z,13.31
2017-05-17T00:55:26.788Z,13.35
2017-05-17T00:55:31.225Z,13.36
2017-05-17T00:55:35.651Z,13.31
2017-05-17T00:55:39.731Z,13.29
2017-05-17T00:55:44.160Z,13.32
2017-05-17T00:55:48.586Z,13.38
2017-05-17T00:55:53.014Z,13.31
2017-05-17T00:55:57.375Z,13.35
2017-05-17T00:56:01.807Z,13.31
2017-05-17T00:56:06.346Z,13.35
2017-05-17T00:56:10.654Z,13.36
2017-05-17T00:56:15.086Z,13.36
2017-05-17T00:56:19.392Z,13.29
2017-05-17T00:56:23.830Z,13.29
2017-05-17T00:56:28.188Z,13.28
2017-05-17T00:56:32.616Z,13.29
2017-05-17T00:56:36.924Z,13.29